sensor_id;sensor_type;location;lat;lon;timestamp;temperature;humidity
40676;DHT22;26359;48.750;9.314;2022-12-07T00:03:40;4.10;99.90
40676;DHT22;26359;48.750;9.314;2022-12-07T00:06:07;4.10;99.90
40676;DHT22;26359;48.750;9.314;2022-12-07T00:08:34;4.10;99.90
40676;DHT22;26359;48.750;9.314;2022-12-07T00:11:04;4.10;99.90
40676;DHT22;26359;48.750;9.314;2022-12-07T00:13:31;4.10;99.90
40676;DHT22;26359;48.750;9.314;2022-12-07T00:16:01;4.10;99.90
40676;DHT22;26359;48.750;9.314;2022-12-07T00:18:27;4.10;99.90
40676;DHT22;26359;48.750;9.314;2022-12-07T00:20:52;4.10;99.90
40676;DHT22;26359;48.750;9.314;2022-12-07T00:23:18;4.10;99.90
40676;DHT22;26359;48.750;9.314;2022-12-07T00:25:43;4.10;99.90
40676;DHT22;26359;48.750;9.314;2022-12-07T00:28:09;4.20;99.90
40676;DHT22;26359;48.750;9.314;2022-12-07T00:30:36;4.20;99.90
40676;DHT22;26359;48.750;9.314;2022-12-07T00:33:01;4.10;99.90
40676;DHT22;26359;48.750;9.314;2022-12-07T00:35:27;4.20;99.90
40676;DHT22;26359;48.750;9.314;2022-12-07T00:37:52;4.20;99.90
40676;DHT22;26359;48.750;9.314;2022-12-07T00:40:18;4.20;99.90
40676;DHT22;26359;48.750;9.314;2022-12-07T00:42:43;4.20;99.90
40676;DHT22;26359;48.750;9.314;2022-12-07T00:45:09;4.10;99.90
40676;DHT22;26359;48.750;9.314;2022-12-07T00:47:34;4.10;99.90
40676;DHT22;26359;48.750;9.314;2022-12-07T00:52:26;4.10;99.90
40676;DHT22;26359;48.750;9.314;2022-12-07T00:54:51;4.10;99.90
40676;DHT22;26359;48.750;9.314;2022-12-07T00:57:17;4.10;99.90
40676;DHT22;26359;48.750;9.314;2022-12-07T00:59:42;4.10;99.90
40676;DHT22;26359;48.750;9.314;2022-12-07T01:02:08;4.00;99.90
40676;DHT22;26359;48.750;9.314;2022-12-07T01:04:34;4.00;99.90
40676;DHT22;26359;48.750;9.314;2022-12-07T01:06:59;4.00;99.90
40676;DHT22;26359;48.750;9.314;2022-12-07T01:09:25;4.00;99.90
40676;DHT22;26359;48.750;9.314;2022-12-07T01:11:50;4.00;99.90
40676;DHT22;26359;48.750;9.314;2022-12-07T01:14:16;4.00;99.90
40676;DHT22;26359;48.750;9.314;2022-12-07T01:16:41;4.00;99.90
40676;DHT22;26359;48.750;9.314;2022-12-07T01:19:07;4.00;99.90
40676;DHT22;26359;48.750;9.314;2022-12-07T01:21:34;4.00;99.90
40676;DHT22;26359;48.750;9.314;2022-12-07T01:24:03;4.00;99.90
40676;DHT22;26359;48.750;9.314;2022-12-07T01:26:29;4.00;99.90
40676;DHT22;26359;48.750;9.314;2022-12-07T01:28:55;4.00;99.90
40676;DHT22;26359;48.750;9.314;2022-12-07T01:31:22;4.00;99.90
40676;DHT22;26359;48.750;9.314;2022-12-07T01:33:50;4.00;99.90
40676;DHT22;26359;48.750;9.314;2022-12-07T01:36:19;4.00;99.90
40676;DHT22;26359;48.750;9.314;2022-12-07T01:38:46;4.00;99.90
40676;DHT22;26359;48.750;9.314;2022-12-07T01:41:12;4.00;99.90
40676;DHT22;26359;48.750;9.314;2022-12-07T01:44:07;4.00;99.90
40676;DHT22;26359;48.750;9.314;2022-12-07T01:46:33;4.00;99.90
40676;DHT22;26359;48.750;9.314;2022-12-07T01:48:59;4.00;99.90
40676;DHT22;26359;48.750;9.314;2022-12-07T01:51:26;3.90;99.90
40676;DHT22;26359;48.750;9.314;2022-12-07T01:53:52;3.90;99.90
40676;DHT22;26359;48.750;9.314;2022-12-07T01:56:22;3.90;99.90
40676;DHT22;26359;48.750;9.314;2022-12-07T01:58:49;3.90;99.90
40676;DHT22;26359;48.750;9.314;2022-12-07T02:01:15;3.90;99.90
40676;DHT22;26359;48.750;9.314;2022-12-07T02:03:42;3.90;99.90
40676;DHT22;26359;48.750;9.314;2022-12-07T02:06:11;3.90;99.90
40676;DHT22;26359;48.750;9.314;2022-12-07T02:08:37;3.90;99.90
40676;DHT22;26359;48.750;9.314;2022-12-07T02:11:05;3.90;99.90
40676;DHT22;26359;48.750;9.314;2022-12-07T02:13:34;3.90;99.90
40676;DHT22;26359;48.750;9.314;2022-12-07T02:22:24;3.80;99.90
40676;DHT22;26359;48.750;9.314;2022-12-07T02:27:50;3.80;99.90
40676;DHT22;26359;48.750;9.314;2022-12-07T02:30:19;3.80;99.90
40676;DHT22;26359;48.750;9.314;2022-12-07T02:33:05;3.80;99.90
40676;DHT22;26359;48.750;9.314;2022-12-07T02:38:25;3.70;99.90
40676;DHT22;26359;48.750;9.314;2022-12-07T02:41:00;3.70;99.90
40676;DHT22;26359;48.750;9.314;2022-12-07T02:43:30;3.70;99.90
40676;DHT22;26359;48.750;9.314;2022-12-07T02:46:01;3.70;99.90
40676;DHT22;26359;48.750;9.314;2022-12-07T02:48:28;3.70;99.90
40676;DHT22;26359;48.750;9.314;2022-12-07T02:50:54;3.70;99.90
40676;DHT22;26359;48.750;9.314;2022-12-07T02:53:30;3.70;99.90
40676;DHT22;26359;48.750;9.314;2022-12-07T02:55:56;3.70;99.90
40676;DHT22;26359;48.750;9.314;2022-12-07T03:01:10;3.80;99.90
40676;DHT22;26359;48.750;9.314;2022-12-07T03:03:40;3.70;99.90
40676;DHT22;26359;48.750;9.314;2022-12-07T03:06:34;3.70;99.90
40676;DHT22;26359;48.750;9.314;2022-12-07T03:09:15;3.70;99.90
40676;DHT22;26359;48.750;9.314;2022-12-07T03:11:50;3.60;99.90
40676;DHT22;26359;48.750;9.314;2022-12-07T03:14:31;3.60;99.90
40676;DHT22;26359;48.750;9.314;2022-12-07T03:17:09;3.60;99.90
40676;DHT22;26359;48.750;9.314;2022-12-07T03:19:39;3.70;99.90
40676;DHT22;26359;48.750;9.314;2022-12-07T03:22:11;3.70;99.90
40676;DHT22;26359;48.750;9.314;2022-12-07T03:24:44;3.80;99.90
40676;DHT22;26359;48.750;9.314;2022-12-07T03:27:19;3.70;99.90
40676;DHT22;26359;48.750;9.314;2022-12-07T03:29:56;3.70;99.90
40676;DHT22;26359;48.750;9.314;2022-12-07T03:41:09;3.80;99.90
40676;DHT22;26359;48.750;9.314;2022-12-07T03:43:37;3.80;99.90
40676;DHT22;26359;48.750;9.314;2022-12-07T03:46:34;3.80;99.90
40676;DHT22;26359;48.750;9.314;2022-12-07T03:54:36;3.80;99.90
40676;DHT22;26359;48.750;9.314;2022-12-07T03:57:04;3.80;99.90
40676;DHT22;26359;48.750;9.314;2022-12-07T03:59:30;3.80;99.90
40676;DHT22;26359;48.750;9.314;2022-12-07T04:02:01;3.80;99.90
40676;DHT22;26359;48.750;9.314;2022-12-07T04:04:28;3.90;99.90
40676;DHT22;26359;48.750;9.314;2022-12-07T04:06:53;3.80;99.90
40676;DHT22;26359;48.750;9.314;2022-12-07T04:09:19;3.80;99.90
40676;DHT22;26359;48.750;9.314;2022-12-07T04:11:45;3.80;99.90
40676;DHT22;26359;48.750;9.314;2022-12-07T04:14:11;3.80;99.90
40676;DHT22;26359;48.750;9.314;2022-12-07T04:16:53;3.70;99.90
40676;DHT22;26359;48.750;9.314;2022-12-07T04:19:24;3.70;99.90
40676;DHT22;26359;48.750;9.314;2022-12-07T04:21:49;3.70;99.90
40676;DHT22;26359;48.750;9.314;2022-12-07T04:24:15;3.60;99.90
40676;DHT22;26359;48.750;9.314;2022-12-07T04:26:42;3.60;99.90
40676;DHT22;26359;48.750;9.314;2022-12-07T04:29:08;3.60;99.90
40676;DHT22;26359;48.750;9.314;2022-12-07T04:31:34;3.60;99.90
40676;DHT22;26359;48.750;9.314;2022-12-07T04:34:00;3.60;99.90
40676;DHT22;26359;48.750;9.314;2022-12-07T04:36:25;3.60;99.90
40676;DHT22;26359;48.750;9.314;2022-12-07T04:38:53;3.60;99.90
40676;DHT22;26359;48.750;9.314;2022-12-07T04:41:20;3.50;99.90
40676;DHT22;26359;48.750;9.314;2022-12-07T04:43:55;3.50;99.90
40676;DHT22;26359;48.750;9.314;2022-12-07T04:46:22;3.50;99.90
40676;DHT22;26359;48.750;9.314;2022-12-07T04:48:47;3.50;99.90
40676;DHT22;26359;48.750;9.314;2022-12-07T04:51:15;3.40;99.90
40676;DHT22;26359;48.750;9.314;2022-12-07T04:53:41;3.40;99.90
40676;DHT22;26359;48.750;9.314;2022-12-07T04:56:07;3.40;99.90
40676;DHT22;26359;48.750;9.314;2022-12-07T04:58:32;3.30;99.90
40676;DHT22;26359;48.750;9.314;2022-12-07T05:00:58;3.30;99.90
40676;DHT22;26359;48.750;9.314;2022-12-07T05:03:23;3.30;99.90
40676;DHT22;26359;48.750;9.314;2022-12-07T05:05:49;3.20;99.90
40676;DHT22;26359;48.750;9.314;2022-12-07T05:08:14;3.20;99.90
40676;DHT22;26359;48.750;9.314;2022-12-07T05:10:40;3.20;99.90
40676;DHT22;26359;48.750;9.314;2022-12-07T05:13:05;3.20;99.90
40676;DHT22;26359;48.750;9.314;2022-12-07T05:15:31;3.20;99.90
40676;DHT22;26359;48.750;9.314;2022-12-07T05:17:56;3.20;99.90
40676;DHT22;26359;48.750;9.314;2022-12-07T05:20:22;3.20;99.90
40676;DHT22;26359;48.750;9.314;2022-12-07T05:22:47;3.20;99.90
40676;DHT22;26359;48.750;9.314;2022-12-07T05:25:13;3.20;99.90
40676;DHT22;26359;48.750;9.314;2022-12-07T05:27:39;3.20;99.90
40676;DHT22;26359;48.750;9.314;2022-12-07T05:30:05;3.30;99.90
40676;DHT22;26359;48.750;9.314;2022-12-07T05:32:30;3.20;99.90
40676;DHT22;26359;48.750;9.314;2022-12-07T05:34:56;3.10;99.90
40676;DHT22;26359;48.750;9.314;2022-12-07T05:37:22;3.10;99.90
40676;DHT22;26359;48.750;9.314;2022-12-07T05:39:47;3.10;99.90
40676;DHT22;26359;48.750;9.314;2022-12-07T05:42:13;3.10;99.90
40676;DHT22;26359;48.750;9.314;2022-12-07T05:44:40;3.10;99.90
40676;DHT22;26359;48.750;9.314;2022-12-07T05:47:05;3.10;99.90
40676;DHT22;26359;48.750;9.314;2022-12-07T05:49:31;3.20;99.90
40676;DHT22;26359;48.750;9.314;2022-12-07T05:51:57;3.10;99.90
40676;DHT22;26359;48.750;9.314;2022-12-07T05:54:22;3.10;99.90
40676;DHT22;26359;48.750;9.314;2022-12-07T05:56:48;3.10;99.90
40676;DHT22;26359;48.750;9.314;2022-12-07T05:59:13;3.10;99.90
40676;DHT22;26359;48.750;9.314;2022-12-07T06:04:17;3.00;99.90
40676;DHT22;26359;48.750;9.314;2022-12-07T06:06:42;3.00;99.90
40676;DHT22;26359;48.750;9.314;2022-12-07T06:09:08;3.00;99.90
40676;DHT22;26359;48.750;9.314;2022-12-07T06:11:34;3.00;99.90
40676;DHT22;26359;48.750;9.314;2022-12-07T06:14:18;3.00;99.90
40676;DHT22;26359;48.750;9.314;2022-12-07T06:16:44;3.00;99.90
40676;DHT22;26359;48.750;9.314;2022-12-07T06:19:09;3.00;99.90
40676;DHT22;26359;48.750;9.314;2022-12-07T06:21:35;3.00;99.90
40676;DHT22;26359;48.750;9.314;2022-12-07T06:24:00;3.00;99.90
40676;DHT22;26359;48.750;9.314;2022-12-07T06:26:27;3.00;99.90
40676;DHT22;26359;48.750;9.314;2022-12-07T06:28:52;3.10;99.90
40676;DHT22;26359;48.750;9.314;2022-12-07T06:31:18;3.10;99.90
40676;DHT22;26359;48.750;9.314;2022-12-07T06:33:44;3.10;99.90
40676;DHT22;26359;48.750;9.314;2022-12-07T06:36:10;3.10;99.90
40676;DHT22;26359;48.750;9.314;2022-12-07T06:38:36;3.00;99.90
40676;DHT22;26359;48.750;9.314;2022-12-07T06:41:01;3.10;99.90
40676;DHT22;26359;48.750;9.314;2022-12-07T06:43:27;3.10;99.90
40676;DHT22;26359;48.750;9.314;2022-12-07T06:45:53;3.10;99.90
40676;DHT22;26359;48.750;9.314;2022-12-07T06:48:18;3.20;99.90
40676;DHT22;26359;48.750;9.314;2022-12-07T06:50:45;3.20;99.90
40676;DHT22;26359;48.750;9.314;2022-12-07T06:53:10;3.30;99.90
40676;DHT22;26359;48.750;9.314;2022-12-07T06:55:36;3.30;99.90
40676;DHT22;26359;48.750;9.314;2022-12-07T06:58:01;3.20;99.90
40676;DHT22;26359;48.750;9.314;2022-12-07T07:00:28;3.10;99.90
40676;DHT22;26359;48.750;9.314;2022-12-07T07:02:53;3.10;99.90
40676;DHT22;26359;48.750;9.314;2022-12-07T07:05:19;3.10;99.90
40676;DHT22;26359;48.750;9.314;2022-12-07T07:07:51;3.10;99.90
40676;DHT22;26359;48.750;9.314;2022-12-07T07:10:17;3.10;99.90
40676;DHT22;26359;48.750;9.314;2022-12-07T07:12:42;3.20;99.90
40676;DHT22;26359;48.750;9.314;2022-12-07T07:15:08;3.20;99.90
40676;DHT22;26359;48.750;9.314;2022-12-07T07:17:35;3.20;99.90
40676;DHT22;26359;48.750;9.314;2022-12-07T07:20:00;3.20;99.90
40676;DHT22;26359;48.750;9.314;2022-12-07T07:22:26;3.20;99.90
40676;DHT22;26359;48.750;9.314;2022-12-07T07:24:51;3.30;99.90
40676;DHT22;26359;48.750;9.314;2022-12-07T07:27:17;3.20;99.90
40676;DHT22;26359;48.750;9.314;2022-12-07T07:29:42;3.20;99.90
40676;DHT22;26359;48.750;9.314;2022-12-07T07:32:08;3.30;99.90
40676;DHT22;26359;48.750;9.314;2022-12-07T07:34:34;3.20;99.90
40676;DHT22;26359;48.750;9.314;2022-12-07T07:36:59;3.20;99.90
40676;DHT22;26359;48.750;9.314;2022-12-07T07:39:25;3.20;99.90
40676;DHT22;26359;48.750;9.314;2022-12-07T07:41:51;3.20;99.90
40676;DHT22;26359;48.750;9.314;2022-12-07T07:44:16;3.30;99.90
40676;DHT22;26359;48.750;9.314;2022-12-07T07:46:42;3.30;99.90
40676;DHT22;26359;48.750;9.314;2022-12-07T07:49:09;3.30;99.90
40676;DHT22;26359;48.750;9.314;2022-12-07T07:51:35;3.20;99.90
40676;DHT22;26359;48.750;9.314;2022-12-07T07:54:00;3.30;99.90
40676;DHT22;26359;48.750;9.314;2022-12-07T07:56:26;3.30;99.90
40676;DHT22;26359;48.750;9.314;2022-12-07T07:58:52;3.30;99.90
40676;DHT22;26359;48.750;9.314;2022-12-07T08:01:18;3.40;99.90
40676;DHT22;26359;48.750;9.314;2022-12-07T08:03:45;3.30;99.90
40676;DHT22;26359;48.750;9.314;2022-12-07T08:06:11;3.40;99.90
40676;DHT22;26359;48.750;9.314;2022-12-07T08:08:37;3.30;99.90
40676;DHT22;26359;48.750;9.314;2022-12-07T08:11:05;3.30;99.90
40676;DHT22;26359;48.750;9.314;2022-12-07T08:13:31;3.30;99.90
40676;DHT22;26359;48.750;9.314;2022-12-07T08:15:56;3.40;99.90
40676;DHT22;26359;48.750;9.314;2022-12-07T08:18:22;3.40;99.90
40676;DHT22;26359;48.750;9.314;2022-12-07T08:20:47;3.50;99.90
40676;DHT22;26359;48.750;9.314;2022-12-07T08:23:13;3.60;99.90
40676;DHT22;26359;48.750;9.314;2022-12-07T08:25:39;3.60;99.90
40676;DHT22;26359;48.750;9.314;2022-12-07T08:28:04;3.60;99.90
40676;DHT22;26359;48.750;9.314;2022-12-07T08:30:30;3.60;99.90
40676;DHT22;26359;48.750;9.314;2022-12-07T08:32:56;3.70;99.90
40676;DHT22;26359;48.750;9.314;2022-12-07T08:35:22;3.70;99.90
40676;DHT22;26359;48.750;9.314;2022-12-07T08:37:47;3.60;99.90
40676;DHT22;26359;48.750;9.314;2022-12-07T08:40:14;3.70;99.90
40676;DHT22;26359;48.750;9.314;2022-12-07T08:42:42;3.70;99.90
40676;DHT22;26359;48.750;9.314;2022-12-07T08:45:12;3.70;99.90
40676;DHT22;26359;48.750;9.314;2022-12-07T08:47:43;3.80;99.90
40676;DHT22;26359;48.750;9.314;2022-12-07T08:50:10;3.70;99.90
40676;DHT22;26359;48.750;9.314;2022-12-07T08:52:37;3.70;99.90
40676;DHT22;26359;48.750;9.314;2022-12-07T08:55:05;3.70;99.90
40676;DHT22;26359;48.750;9.314;2022-12-07T08:57:32;3.80;99.90
40676;DHT22;26359;48.750;9.314;2022-12-07T08:59:58;3.80;99.90
40676;DHT22;26359;48.750;9.314;2022-12-07T09:02:24;3.70;99.90
40676;DHT22;26359;48.750;9.314;2022-12-07T09:04:50;3.70;99.90
40676;DHT22;26359;48.750;9.314;2022-12-07T09:07:15;3.80;99.90
40676;DHT22;26359;48.750;9.314;2022-12-07T09:09:41;3.80;99.90
40676;DHT22;26359;48.750;9.314;2022-12-07T09:12:07;3.90;99.90
40676;DHT22;26359;48.750;9.314;2022-12-07T09:14:33;3.90;99.90
40676;DHT22;26359;48.750;9.314;2022-12-07T09:17:24;4.00;99.90
40676;DHT22;26359;48.750;9.314;2022-12-07T09:19:50;3.90;99.90
40676;DHT22;26359;48.750;9.314;2022-12-07T09:22:15;3.90;99.90
40676;DHT22;26359;48.750;9.314;2022-12-07T09:24:41;3.90;99.90
40676;DHT22;26359;48.750;9.314;2022-12-07T09:27:06;4.00;99.90
40676;DHT22;26359;48.750;9.314;2022-12-07T09:29:32;4.00;99.90
40676;DHT22;26359;48.750;9.314;2022-12-07T09:31:57;4.00;99.90
40676;DHT22;26359;48.750;9.314;2022-12-07T09:34:23;4.00;99.90
40676;DHT22;26359;48.750;9.314;2022-12-07T09:36:48;4.10;99.90
40676;DHT22;26359;48.750;9.314;2022-12-07T09:39:14;4.00;99.90
40676;DHT22;26359;48.750;9.314;2022-12-07T09:41:41;3.90;99.90
40676;DHT22;26359;48.750;9.314;2022-12-07T09:44:12;4.00;99.90
40676;DHT22;26359;48.750;9.314;2022-12-07T09:46:41;4.10;99.90
40676;DHT22;26359;48.750;9.314;2022-12-07T09:49:19;4.10;99.90
40676;DHT22;26359;48.750;9.314;2022-12-07T09:51:45;4.30;99.90
40676;DHT22;26359;48.750;9.314;2022-12-07T09:54:15;4.30;99.90
40676;DHT22;26359;48.750;9.314;2022-12-07T09:56:43;4.20;99.90
40676;DHT22;26359;48.750;9.314;2022-12-07T09:59:21;4.30;99.90
40676;DHT22;26359;48.750;9.314;2022-12-07T10:01:49;4.40;99.90
40676;DHT22;26359;48.750;9.314;2022-12-07T10:04:24;4.50;99.90
40676;DHT22;26359;48.750;9.314;2022-12-07T10:06:50;4.70;99.90
40676;DHT22;26359;48.750;9.314;2022-12-07T10:09:18;4.80;99.90
40676;DHT22;26359;48.750;9.314;2022-12-07T10:12:07;4.90;99.90
40676;DHT22;26359;48.750;9.314;2022-12-07T10:14:37;5.10;99.90
40676;DHT22;26359;48.750;9.314;2022-12-07T10:17:28;5.00;99.90
40676;DHT22;26359;48.750;9.314;2022-12-07T10:20:13;4.90;99.90
40676;DHT22;26359;48.750;9.314;2022-12-07T10:25:26;4.90;99.90
40676;DHT22;26359;48.750;9.314;2022-12-07T10:28:16;4.80;99.90
40676;DHT22;26359;48.750;9.314;2022-12-07T10:31:03;4.80;99.90
40676;DHT22;26359;48.750;9.314;2022-12-07T10:34:00;4.80;99.90
40676;DHT22;26359;48.750;9.314;2022-12-07T10:36:36;5.00;99.90
40676;DHT22;26359;48.750;9.314;2022-12-07T10:39:17;4.90;99.90
40676;DHT22;26359;48.750;9.314;2022-12-07T10:44:24;5.00;99.90
40676;DHT22;26359;48.750;9.314;2022-12-07T10:47:01;4.70;99.90
40676;DHT22;26359;48.750;9.314;2022-12-07T10:55:20;4.90;99.90
40676;DHT22;26359;48.750;9.314;2022-12-07T10:58:00;4.90;99.90
40676;DHT22;26359;48.750;9.314;2022-12-07T11:00:39;5.00;99.90
40676;DHT22;26359;48.750;9.314;2022-12-07T11:03:29;5.00;99.90
40676;DHT22;26359;48.750;9.314;2022-12-07T11:06:14;5.00;99.90
40676;DHT22;26359;48.750;9.314;2022-12-07T11:09:04;5.10;99.90
40676;DHT22;26359;48.750;9.314;2022-12-07T11:11:47;5.00;99.90
40676;DHT22;26359;48.750;9.314;2022-12-07T11:14:30;5.10;99.90
40676;DHT22;26359;48.750;9.314;2022-12-07T11:17:36;5.10;99.90
40676;DHT22;26359;48.750;9.314;2022-12-07T11:31:12;4.90;99.90
40676;DHT22;26359;48.750;9.314;2022-12-07T11:33:54;5.10;99.90
40676;DHT22;26359;48.750;9.314;2022-12-07T11:38:57;5.00;99.90
40676;DHT22;26359;48.750;9.314;2022-12-07T11:41:28;4.90;99.90
40676;DHT22;26359;48.750;9.314;2022-12-07T11:43:57;4.90;99.90
40676;DHT22;26359;48.750;9.314;2022-12-07T11:46:36;4.90;99.90
40676;DHT22;26359;48.750;9.314;2022-12-07T11:49:37;4.90;99.90
40676;DHT22;26359;48.750;9.314;2022-12-07T11:54:45;4.90;99.90
40676;DHT22;26359;48.750;9.314;2022-12-07T11:57:24;5.00;99.90
40676;DHT22;26359;48.750;9.314;2022-12-07T11:59:52;5.00;99.90
40676;DHT22;26359;48.750;9.314;2022-12-07T12:02:26;4.90;99.90
40676;DHT22;26359;48.750;9.314;2022-12-07T12:07:39;5.00;99.90
40676;DHT22;26359;48.750;9.314;2022-12-07T12:10:16;4.90;99.90
40676;DHT22;26359;48.750;9.314;2022-12-07T12:13:14;4.90;99.90
40676;DHT22;26359;48.750;9.314;2022-12-07T12:21:46;4.90;99.90
40676;DHT22;26359;48.750;9.314;2022-12-07T12:24:25;4.90;99.90
40676;DHT22;26359;48.750;9.314;2022-12-07T12:27:01;5.00;99.90
40676;DHT22;26359;48.750;9.314;2022-12-07T12:29:39;5.00;99.90
40676;DHT22;26359;48.750;9.314;2022-12-07T12:32:30;5.00;99.90
40676;DHT22;26359;48.750;9.314;2022-12-07T12:34:59;5.00;99.90
40676;DHT22;26359;48.750;9.314;2022-12-07T12:37:39;5.00;99.90
40676;DHT22;26359;48.750;9.314;2022-12-07T12:42:49;5.00;99.90
40676;DHT22;26359;48.750;9.314;2022-12-07T12:48:00;4.90;99.90
40676;DHT22;26359;48.750;9.314;2022-12-07T12:50:30;4.90;99.90
40676;DHT22;26359;48.750;9.314;2022-12-07T12:53:02;4.90;99.90
40676;DHT22;26359;48.750;9.314;2022-12-07T13:00:46;4.90;99.90
40676;DHT22;26359;48.750;9.314;2022-12-07T13:03:26;4.90;99.90
40676;DHT22;26359;48.750;9.314;2022-12-07T13:08:50;4.90;99.90
40676;DHT22;26359;48.750;9.314;2022-12-07T13:11:28;4.90;99.90
40676;DHT22;26359;48.750;9.314;2022-12-07T13:16:58;5.00;99.90
40676;DHT22;26359;48.750;9.314;2022-12-07T13:25:12;4.90;99.90
40676;DHT22;26359;48.750;9.314;2022-12-07T13:27:41;4.80;99.90
40676;DHT22;26359;48.750;9.314;2022-12-07T13:30:20;4.80;99.90
40676;DHT22;26359;48.750;9.314;2022-12-07T13:32:53;4.80;99.90
40676;DHT22;26359;48.750;9.314;2022-12-07T13:35:34;4.80;99.90
40676;DHT22;26359;48.750;9.314;2022-12-07T13:38:04;4.80;99.90
40676;DHT22;26359;48.750;9.314;2022-12-07T13:40:31;4.80;99.90
40676;DHT22;26359;48.750;9.314;2022-12-07T13:43:02;4.70;99.90
40676;DHT22;26359;48.750;9.314;2022-12-07T13:45:30;4.70;99.90
40676;DHT22;26359;48.750;9.314;2022-12-07T13:48:32;4.70;99.90
40676;DHT22;26359;48.750;9.314;2022-12-07T13:51:02;4.70;99.90
40676;DHT22;26359;48.750;9.314;2022-12-07T13:53:28;4.70;99.90
40676;DHT22;26359;48.750;9.314;2022-12-07T13:56:00;4.70;99.90
40676;DHT22;26359;48.750;9.314;2022-12-07T13:58:29;4.60;99.90
40676;DHT22;26359;48.750;9.314;2022-12-07T14:00:56;4.60;99.90
40676;DHT22;26359;48.750;9.314;2022-12-07T14:03:31;4.60;99.90
40676;DHT22;26359;48.750;9.314;2022-12-07T14:08:39;4.70;99.90
40676;DHT22;26359;48.750;9.314;2022-12-07T14:11:10;4.70;99.90
40676;DHT22;26359;48.750;9.314;2022-12-07T14:13:57;4.70;99.90
40676;DHT22;26359;48.750;9.314;2022-12-07T14:18:53;4.70;99.90
40676;DHT22;26359;48.750;9.314;2022-12-07T14:21:21;4.70;99.90
40676;DHT22;26359;48.750;9.314;2022-12-07T14:26:38;4.70;99.90
40676;DHT22;26359;48.750;9.314;2022-12-07T14:31:45;4.70;99.90
40676;DHT22;26359;48.750;9.314;2022-12-07T14:34:14;4.70;99.90
40676;DHT22;26359;48.750;9.314;2022-12-07T14:36:40;4.70;99.90
40676;DHT22;26359;48.750;9.314;2022-12-07T14:39:05;4.70;99.90
40676;DHT22;26359;48.750;9.314;2022-12-07T14:41:31;4.70;99.90
40676;DHT22;26359;48.750;9.314;2022-12-07T14:44:15;4.70;99.90
40676;DHT22;26359;48.750;9.314;2022-12-07T14:46:40;4.70;99.90
40676;DHT22;26359;48.750;9.314;2022-12-07T14:49:06;4.70;99.90
40676;DHT22;26359;48.750;9.314;2022-12-07T14:51:32;4.70;99.90
40676;DHT22;26359;48.750;9.314;2022-12-07T14:53:58;4.80;99.90
40676;DHT22;26359;48.750;9.314;2022-12-07T14:56:25;4.70;99.90
40676;DHT22;26359;48.750;9.314;2022-12-07T14:58:50;4.70;99.90
40676;DHT22;26359;48.750;9.314;2022-12-07T15:01:16;4.70;99.90
40676;DHT22;26359;48.750;9.314;2022-12-07T15:03:42;4.70;99.90
40676;DHT22;26359;48.750;9.314;2022-12-07T15:06:10;4.70;99.90
40676;DHT22;26359;48.750;9.314;2022-12-07T15:08:38;4.70;99.90
40676;DHT22;26359;48.750;9.314;2022-12-07T15:11:04;4.70;99.90
40676;DHT22;26359;48.750;9.314;2022-12-07T15:13:29;4.70;99.90
40676;DHT22;26359;48.750;9.314;2022-12-07T15:16:17;4.60;99.90
40676;DHT22;26359;48.750;9.314;2022-12-07T15:18:44;4.70;99.90
40676;DHT22;26359;48.750;9.314;2022-12-07T15:21:14;4.70;99.90
40676;DHT22;26359;48.750;9.314;2022-12-07T15:23:40;4.60;99.90
40676;DHT22;26359;48.750;9.314;2022-12-07T15:26:06;4.70;99.90
40676;DHT22;26359;48.750;9.314;2022-12-07T15:28:31;4.60;99.90
40676;DHT22;26359;48.750;9.314;2022-12-07T15:30:57;4.60;99.90
40676;DHT22;26359;48.750;9.314;2022-12-07T15:33:22;4.60;99.90
40676;DHT22;26359;48.750;9.314;2022-12-07T15:35:48;4.50;99.90
40676;DHT22;26359;48.750;9.314;2022-12-07T15:38:13;4.60;99.90
40676;DHT22;26359;48.750;9.314;2022-12-07T15:40:40;4.60;99.90
40676;DHT22;26359;48.750;9.314;2022-12-07T15:43:07;4.60;99.90
40676;DHT22;26359;48.750;9.314;2022-12-07T15:45:53;4.60;99.90
40676;DHT22;26359;48.750;9.314;2022-12-07T15:48:18;4.60;99.90
40676;DHT22;26359;48.750;9.314;2022-12-07T15:50:44;4.60;99.90
40676;DHT22;26359;48.750;9.314;2022-12-07T15:53:10;4.60;99.90
40676;DHT22;26359;48.750;9.314;2022-12-07T15:55:37;4.60;99.90
40676;DHT22;26359;48.750;9.314;2022-12-07T15:58:03;4.50;99.90
40676;DHT22;26359;48.750;9.314;2022-12-07T16:00:29;4.60;99.90
40676;DHT22;26359;48.750;9.314;2022-12-07T16:02:54;4.60;99.90
40676;DHT22;26359;48.750;9.314;2022-12-07T16:05:20;4.60;99.90
40676;DHT22;26359;48.750;9.314;2022-12-07T16:07:45;4.40;99.90
40676;DHT22;26359;48.750;9.314;2022-12-07T16:10:12;4.40;99.90
40676;DHT22;26359;48.750;9.314;2022-12-07T16:12:38;4.40;99.90
40676;DHT22;26359;48.750;9.314;2022-12-07T16:15:04;4.40;99.90
40676;DHT22;26359;48.750;9.314;2022-12-07T16:17:30;4.40;99.90
40676;DHT22;26359;48.750;9.314;2022-12-07T16:19:55;4.40;99.90
40676;DHT22;26359;48.750;9.314;2022-12-07T16:22:21;4.50;99.90
40676;DHT22;26359;48.750;9.314;2022-12-07T16:24:46;4.40;99.90
40676;DHT22;26359;48.750;9.314;2022-12-07T16:27:12;4.40;99.90
40676;DHT22;26359;48.750;9.314;2022-12-07T16:29:37;4.30;99.90
40676;DHT22;26359;48.750;9.314;2022-12-07T16:32:03;4.30;99.90
40676;DHT22;26359;48.750;9.314;2022-12-07T16:34:28;4.30;99.90
40676;DHT22;26359;48.750;9.314;2022-12-07T16:36:54;4.20;99.90
40676;DHT22;26359;48.750;9.314;2022-12-07T16:39:19;4.20;99.90
40676;DHT22;26359;48.750;9.314;2022-12-07T16:41:45;4.20;99.90
40676;DHT22;26359;48.750;9.314;2022-12-07T16:44:12;4.20;99.90
40676;DHT22;26359;48.750;9.314;2022-12-07T16:46:38;4.20;99.90
40676;DHT22;26359;48.750;9.314;2022-12-07T16:49:04;4.10;99.90
40676;DHT22;26359;48.750;9.314;2022-12-07T16:51:30;4.10;99.90
40676;DHT22;26359;48.750;9.314;2022-12-07T16:53:56;4.10;99.90
40676;DHT22;26359;48.750;9.314;2022-12-07T16:56:22;4.10;99.90
40676;DHT22;26359;48.750;9.314;2022-12-07T16:58:48;4.10;99.90
40676;DHT22;26359;48.750;9.314;2022-12-07T17:01:20;4.00;99.90
40676;DHT22;26359;48.750;9.314;2022-12-07T17:03:47;4.00;99.90
40676;DHT22;26359;48.750;9.314;2022-12-07T17:06:18;4.00;99.90
40676;DHT22;26359;48.750;9.314;2022-12-07T17:08:44;4.00;99.90
40676;DHT22;26359;48.750;9.314;2022-12-07T17:11:13;3.90;99.90
40676;DHT22;26359;48.750;9.314;2022-12-07T17:13:39;3.90;99.90
40676;DHT22;26359;48.750;9.314;2022-12-07T17:16:24;3.90;99.90
40676;DHT22;26359;48.750;9.314;2022-12-07T17:18:49;4.00;99.90
40676;DHT22;26359;48.750;9.314;2022-12-07T17:21:15;4.00;99.90
40676;DHT22;26359;48.750;9.314;2022-12-07T17:23:40;4.00;99.90
40676;DHT22;26359;48.750;9.314;2022-12-07T17:26:14;4.00;99.90
40676;DHT22;26359;48.750;9.314;2022-12-07T17:28:40;3.90;99.90
40676;DHT22;26359;48.750;9.314;2022-12-07T17:31:08;3.90;99.90
40676;DHT22;26359;48.750;9.314;2022-12-07T17:33:35;3.90;99.90
40676;DHT22;26359;48.750;9.314;2022-12-07T17:36:01;3.90;99.90
40676;DHT22;26359;48.750;9.314;2022-12-07T17:38:34;3.90;99.90
40676;DHT22;26359;48.750;9.314;2022-12-07T17:40:59;4.00;99.90
40676;DHT22;26359;48.750;9.314;2022-12-07T17:43:25;3.90;99.90